Time;durP1;ratioP1;P1;durP2;ratioP2;P2;SDS_P1;SDS_P2;PMS_P1;PMS_P2;Temp;Humidity;BMP_temperature;BMP_pressure;BME280_temperature;BME280_humidity;BME280_pressure;Samples;Min_cycle;Max_cycle;Signal;HPM_P1;HPM_P2
2023/03/25 00:00:21;;;;;;;7.95;2.63;;;9.20;99.90;;;;;;5080262;28;20037;-67
2023/03/25 00:02:49;;;;;;;8.93;2.80;;;9.20;99.90;;;;;;5065970;28;20043;-67
2023/03/25 00:05:17;;;;;;;7.68;1.92;;;9.20;99.90;;;;;;5065084;28;20390;-66
2023/03/25 00:07:44;;;;;;;6.07;2.22;;;9.20;99.90;;;;;;5064978;28;20040;-67
2023/03/25 00:10:12;;;;;;;7.68;2.35;;;9.20;99.90;;;;;;5065352;28;20032;-67
2023/03/25 00:12:37;;;;;;;7.28;2.15;;;9.20;99.90;;;;;;5063842;28;20697;-67
2023/03/25 00:15:08;;;;;;;8.07;2.65;;;9.20;99.90;;;;;;5065980;28;20044;-67
2023/03/25 00:17:35;;;;;;;4.00;2.10;;;9.20;99.90;;;;;;5060844;28;20092;-67
2023/03/25 00:20:04;;;;;;;6.22;3.00;;;9.20;99.90;;;;;;5064823;28;20028;-67
2023/03/25 00:22:30;;;;;;;5.85;2.70;;;9.20;99.90;;;;;;5063102;28;20115;-67
2023/03/25 00:24:56;;;;;;;10.95;3.20;;;9.10;99.90;;;;;;5065935;28;20135;-67
2023/03/25 00:27:21;;;;;;;5.35;3.10;;;9.20;99.90;;;;;;5065009;28;20352;-67
2023/03/25 00:29:47;;;;;;;7.40;2.70;;;9.10;99.90;;;;;;5047966;28;20048;-67
2023/03/25 00:32:14;;;;;;;7.57;2.83;;;9.10;99.90;;;;;;5065267;28;20044;-67
2023/03/25 00:34:46;;;;;;;8.43;2.88;;;9.10;99.90;;;;;;5064856;28;20040;-67
2023/03/25 00:37:16;;;;;;;6.78;3.00;;;9.10;99.90;;;;;;5063646;28;20040;-67
2023/03/25 00:39:43;;;;;;;5.80;2.78;;;9.10;99.90;;;;;;5063844;28;20081;-67
2023/03/25 00:42:12;;;;;;;7.13;2.88;;;9.00;99.90;;;;;;5065510;28;20420;-67
2023/03/25 00:44:38;;;;;;;5.57;3.47;;;9.00;99.90;;;;;;5065954;28;20501;-67
2023/03/25 00:47:04;;;;;;;6.78;3.25;;;9.00;99.90;;;;;;5061747;28;20024;-67
2023/03/25 00:49:30;;;;;;;5.35;3.25;;;9.00;99.90;;;;;;5064431;28;20046;-67
2023/03/25 00:51:56;;;;;;;7.28;3.70;;;9.00;99.90;;;;;;5079893;28;20036;-67
2023/03/25 00:54:22;;;;;;;6.72;3.60;;;9.00;99.90;;;;;;5062312;28;20043;-67
2023/03/25 00:56:49;;;;;;;10.45;4.30;;;9.00;99.90;;;;;;5064660;28;20048;-66
2023/03/25 00:59:15;;;;;;;6.82;3.80;;;9.00;99.90;;;;;;5064860;28;20403;-67
2023/03/25 01:01:42;;;;;;;11.48;4.07;;;9.00;99.90;;;;;;5062234;28;20036;-67
2023/03/25 01:04:11;;;;;;;10.55;4.00;;;8.90;99.90;;;;;;5061987;28;20047;-67
2023/03/25 01:06:50;;;;;;;7.10;4.18;;;9.00;99.90;;;;;;5045071;28;20040;-67
2023/03/25 01:09:17;;;;;;;10.52;4.50;;;9.00;99.90;;;;;;5042202;28;20045;-67
2023/03/25 01:11:44;;;;;;;6.70;4.25;;;9.00;99.90;;;;;;5065534;28;20044;-67
2023/03/25 01:14:23;;;;;;;8.80;4.18;;;8.90;99.90;;;;;;5063878;28;20048;-66
2023/03/25 01:16:49;;;;;;;9.63;4.00;;;8.90;99.90;;;;;;5073753;28;20059;-67
2023/03/25 01:19:14;;;;;;;10.13;4.55;;;8.90;99.90;;;;;;5062808;28;20051;-67
2023/03/25 01:21:40;;;;;;;8.73;3.88;;;8.90;99.90;;;;;;5063130;28;20029;-66
2023/03/25 01:24:07;;;;;;;6.10;3.88;;;8.80;99.90;;;;;;5062671;28;20043;-67
2023/03/25 01:26:33;;;;;;;13.20;3.83;;;8.80;99.90;;;;;;5078391;28;20127;-67
2023/03/25 01:28:59;;;;;;;15.23;5.45;;;8.80;99.90;;;;;;5065007;28;20184;-67
2023/03/25 01:31:28;;;;;;;12.13;3.70;;;8.80;99.90;;;;;;5058884;28;20178;-67
2023/03/25 01:33:56;;;;;;;9.13;3.42;;;8.80;99.90;;;;;;5063388;28;20049;-67
2023/03/25 01:36:23;;;;;;;9.15;3.53;;;8.80;99.90;;;;;;5062338;28;20139;-67
2023/03/25 01:38:50;;;;;;;10.32;3.58;;;8.80;99.90;;;;;;5061338;28;20044;-67
2023/03/25 01:41:16;;;;;;;9.32;3.72;;;8.80;99.90;;;;;;5063221;28;20041;-67
2023/03/25 01:43:59;;;;;;;8.95;3.50;;;8.80;99.90;;;;;;5064859;28;20591;-66
2023/03/25 01:46:25;;;;;;;8.75;3.65;;;8.80;99.90;;;;;;5064549;28;20040;-67
2023/03/25 01:48:51;;;;;;;9.10;3.65;;;8.80;99.90;;;;;;5063292;28;20090;-67
2023/03/25 01:51:20;;;;;;;8.00;3.50;;;8.80;99.90;;;;;;5059590;28;20138;-67
2023/03/25 01:53:50;;;;;;;;;;;8.70;99.90;;;;;;5061043;28;20119;-67
2023/03/25 01:56:21;;;;;;;8.60;3.03;;;8.70;99.90;;;;;;5062071;28;19916;-67
2023/03/25 01:58:48;;;;;;;6.60;3.22;;;8.70;99.90;;;;;;5062402;28;20040;-67
2023/03/25 02:01:20;;;;;;;11.40;3.17;;;8.60;99.90;;;;;;5062563;28;20550;-67
2023/03/25 02:03:53;;;;;;;12.43;2.97;;;8.60;99.90;;;;;;5056979;28;20513;-67
2023/03/25 02:06:44;;;;;;;10.95;3.25;;;8.50;99.90;;;;;;5062010;28;20117;-67
2023/03/25 02:09:14;;;;;;;10.55;3.80;;;8.40;99.90;;;;;;5072936;28;20033;-67
2023/03/25 02:11:40;;;;;;;12.20;3.60;;;8.30;99.90;;;;;;5055106;28;20054;-67
2023/03/25 02:14:21;;;;;;;8.02;3.30;;;8.20;99.90;;;;;;5062011;28;20028;-67
2023/03/25 02:16:57;;;;;;;12.10;3.63;;;8.10;99.90;;;;;;5060206;28;20044;-67
2023/03/25 02:19:47;;;;;;;11.57;3.92;;;8.10;99.90;;;;;;5047929;28;20051;-67
2023/03/25 02:22:36;;;;;;;8.68;3.40;;;8.00;99.90;;;;;;5059506;28;20081;-67
2023/03/25 02:25:34;;;;;;;7.95;3.03;;;8.00;99.90;;;;;;5060217;28;20212;-67
2023/03/25 02:28:24;;;;;;;12.43;3.70;;;8.00;99.90;;;;;;5061703;28;20044;-67
2023/03/25 02:31:16;;;;;;;10.20;3.28;;;8.00;99.90;;;;;;5062335;28;20053;-66
2023/03/25 02:34:09;;;;;;;11.50;3.50;;;8.00;99.90;;;;;;5061363;28;20083;-67
2023/03/25 02:37:08;;;;;;;7.82;2.65;;;7.90;99.90;;;;;;5060214;28;20052;-67
2023/03/25 02:39:52;;;;;;;12.63;3.13;;;7.90;99.90;;;;;;5045814;28;20040;-66
2023/03/25 02:42:39;;;;;;;9.98;2.70;;;7.80;99.90;;;;;;5060376;28;20048;-67
2023/03/25 02:45:15;;;;;;;11.65;3.17;;;7.80;99.90;;;;;;5058958;28;20044;-67
2023/03/25 02:47:48;;;;;;;16.05;3.97;;;7.70;99.90;;;;;;5061840;28;20049;-66
2023/03/25 02:50:25;;;;;;;13.23;3.47;;;7.70;99.90;;;;;;5059059;28;20264;-67
2023/03/25 02:52:59;;;;;;;7.72;3.38;;;7.60;99.90;;;;;;5061713;28;20090;-67
2023/03/25 02:55:29;;;;;;;14.07;4.22;;;7.60;99.90;;;;;;5062414;28;20028;-67
2023/03/25 02:58:02;;;;;;;15.45;3.65;;;7.70;99.90;;;;;;5044716;28;20043;-66
2023/03/25 03:00:30;;;;;;;10.27;3.90;;;7.60;99.90;;;;;;5059946;28;20045;-67
2023/03/25 03:02:59;;;;;;;18.65;4.10;;;7.60;99.90;;;;;;5061740;28;20036;-66
2023/03/25 03:05:28;;;;;;;17.25;3.40;;;7.60;99.90;;;;;;5060904;28;20128;-66
2023/03/25 03:08:13;;;;;;;13.68;3.42;;;7.70;99.90;;;;;;5062612;28;20085;-67
2023/03/25 03:11:00;;;;;;;10.88;4.32;;;7.70;99.90;;;;;;5062243;28;20120;-66
2023/03/25 03:13:41;;;;;;;9.35;3.28;;;7.70;99.90;;;;;;5062320;28;20045;-67
2023/03/25 03:16:40;;;;;;;12.27;3.80;;;7.70;99.90;;;;;;5045318;28;20409;-67
2023/03/25 03:19:30;;;;;;;9.93;3.28;;;7.70;99.90;;;;;;5062088;28;20044;-66
2023/03/25 03:22:07;;;;;;;16.60;3.50;;;7.70;99.90;;;;;;5061845;28;20508;-67
2023/03/25 03:24:40;;;;;;;10.30;3.22;;;7.70;99.90;;;;;;5058992;28;20517;-67
2023/03/25 03:27:25;;;;;;;14.45;3.58;;;7.70;99.90;;;;;;5063160;28;20041;-67
2023/03/25 03:30:16;;;;;;;12.20;3.28;;;7.70;99.90;;;;;;5059377;28;20032;-67
2023/03/25 03:33:20;;;;;;;15.00;3.35;;;7.70;99.90;;;;;;5065655;28;20048;-67
2023/03/25 03:36:05;;;;;;;12.95;3.75;;;7.60;99.90;;;;;;5066659;28;20080;-67
2023/03/25 03:38:37;;;;;;;13.83;3.53;;;7.70;99.90;;;;;;5064386;28;20049;-66
2023/03/25 03:41:19;;;;;;;18.08;3.70;;;7.70;99.90;;;;;;5065788;28;20044;-67
2023/03/25 03:44:01;;;;;;;16.48;3.70;;;7.60;99.90;;;;;;5051119;28;20051;-66
2023/03/25 03:46:36;;;;;;;12.95;2.92;;;7.70;99.90;;;;;;5063389;28;20407;-66
2023/03/25 03:49:12;;;;;;;10.93;3.10;;;7.60;99.90;;;;;;5065489;28;20156;-66
2023/03/25 03:51:45;;;;;;;18.13;3.80;;;7.70;99.90;;;;;;5065281;28;20037;-67
2023/03/25 03:54:31;;;;;;;12.50;3.42;;;7.60;99.90;;;;;;5067829;28;20036;-66
2023/03/25 03:57:16;;;;;;;13.35;3.55;;;7.60;99.90;;;;;;5063155;28;20055;-66
2023/03/25 04:00:05;;;;;;;11.27;3.42;;;7.70;99.90;;;;;;5065063;28;20112;-66
2023/03/25 04:02:58;;;;;;;9.60;3.00;;;7.70;99.90;;;;;;5063155;28;20040;-66
2023/03/25 04:05:31;;;;;;;15.00;3.65;;;7.70;99.90;;;;;;5075001;28;20079;-66
2023/03/25 04:08:10;;;;;;;12.88;4.05;;;7.70;99.90;;;;;;5063770;28;20086;-66
2023/03/25 04:10:57;;;;;;;9.90;3.08;;;7.70;99.90;;;;;;5062264;28;20042;-66
2023/03/25 04:13:27;;;;;;;18.60;3.10;;;7.70;99.90;;;;;;5065015;28;20084;-66
2023/03/25 04:15:53;;;;;;;13.15;3.17;;;7.70;99.90;;;;;;5066230;28;20087;-66
2023/03/25 04:18:22;;;;;;;13.15;3.78;;;7.60;99.90;;;;;;5066237;28;20119;-66
2023/03/25 04:20:54;;;;;;;9.43;3.67;;;7.70;99.90;;;;;;5063800;28;20202;-66
2023/03/25 04:23:21;;;;;;;10.25;3.25;;;7.70;99.90;;;;;;5064191;28;20067;-67
2023/03/25 04:25:51;;;;;;;11.20;3.20;;;7.70;99.90;;;;;;5063950;28;20047;-66
2023/03/25 04:28:22;;;;;;;11.00;3.75;;;7.60;99.90;;;;;;5065850;28;20093;-66
2023/03/25 04:30:54;;;;;;;9.15;3.17;;;7.60;99.90;;;;;;5063261;28;20097;-66
2023/03/25 04:33:24;;;;;;;12.68;3.45;;;7.60;99.90;;;;;;5066089;28;20056;-67
2023/03/25 04:35:50;;;;;;;14.00;3.90;;;7.60;99.90;;;;;;5064588;28;20515;-66
2023/03/25 04:38:19;;;;;;;10.27;3.38;;;7.60;99.90;;;;;;5062781;28;20041;-67
2023/03/25 04:40:46;;;;;;;12.90;4.57;;;7.60;99.90;;;;;;5055331;28;20047;-67
2023/03/25 04:43:13;;;;;;;14.63;3.80;;;7.60;99.90;;;;;;5064599;28;20043;-67
2023/03/25 04:45:41;;;;;;;13.32;4.00;;;7.70;99.90;;;;;;5064239;28;20036;-67
2023/03/25 04:48:22;;;;;;;11.90;4.00;;;7.60;99.90;;;;;;5064187;28;20452;-67
2023/03/25 04:50:50;;;;;;;10.32;3.67;;;7.60;99.90;;;;;;5059105;28;20043;-66
2023/03/25 04:53:17;;;;;;;15.77;3.60;;;7.60;99.90;;;;;;5063057;28;20044;-67
2023/03/25 04:55:46;;;;;;;12.73;3.90;;;7.60;99.90;;;;;;5076805;28;20068;-67
2023/03/25 04:58:16;;;;;;;12.63;4.18;;;7.60;99.90;;;;;;5065135;28;20040;-66
2023/03/25 05:00:50;;;;;;;9.35;4.57;;;7.60;99.90;;;;;;5078030;28;20564;-66
2023/03/25 05:03:17;;;;;;;10.30;3.75;;;7.60;99.90;;;;;;5064962;28;20325;-66
2023/03/25 05:05:46;;;;;;;11.77;4.80;;;7.60;99.90;;;;;;5063502;28;20091;-66
2023/03/25 05:08:13;;;;;;;10.10;3.80;;;7.60;99.90;;;;;;5061967;28;20033;-66
2023/03/25 05:10:42;;;;;;;17.15;4.35;;;7.50;99.90;;;;;;5061020;28;20108;-66
2023/03/25 05:13:14;;;;;;;11.38;4.22;;;7.50;99.90;;;;;;5030983;28;20044;-66
2023/03/25 05:15:42;;;;;;;12.25;4.00;;;7.50;99.90;;;;;;5063211;28;20076;-66
2023/03/25 05:18:13;;;;;;;19.10;5.57;;;7.50;99.90;;;;;;5064964;28;20076;-67
2023/03/25 05:20:43;;;;;;;14.45;4.45;;;7.50;99.90;;;;;;5074037;28;20063;-67
2023/03/25 05:23:16;;;;;;;12.13;4.88;;;7.50;99.90;;;;;;5059998;28;20068;-66
2023/03/25 05:25:49;;;;;;;15.90;5.45;;;7.50;99.90;;;;;;5054556;28;20052;-67
2023/03/25 05:28:21;;;;;;;19.48;5.75;;;7.50;99.90;;;;;;5062962;28;20048;-66
2023/03/25 05:30:47;;;;;;;11.18;4.90;;;7.50;99.90;;;;;;5057393;28;20059;-66
2023/03/25 05:33:25;;;;;;;9.95;4.15;;;7.50;99.90;;;;;;5060840;28;20049;-67
2023/03/25 05:35:54;;;;;;;16.63;5.43;;;7.50;99.90;;;;;;5062567;28;20150;-66
2023/03/25 05:38:22;;;;;;;14.32;5.70;;;7.60;99.90;;;;;;5042844;28;20619;-66
2023/03/25 05:40:51;;;;;;;10.73;5.30;;;7.50;99.90;;;;;;5061149;28;20040;-67
2023/03/25 05:43:21;;;;;;;12.98;5.60;;;7.60;99.90;;;;;;5073143;28;20122;-67
2023/03/25 05:45:47;;;;;;;11.00;5.30;;;7.60;99.90;;;;;;5064193;28;20099;-67
2023/03/25 05:48:13;;;;;;;18.42;6.95;;;7.60;99.90;;;;;;5063618;28;20555;-66
2023/03/25 05:50:42;;;;;;;18.00;6.30;;;7.50;99.90;;;;;;5075484;28;20101;-66
2023/03/25 05:53:12;;;;;;;15.23;6.43;;;7.50;99.90;;;;;;5059483;28;20040;-66
2023/03/25 05:55:38;;;;;;;19.45;6.97;;;7.50;99.90;;;;;;5063089;28;20047;-66
2023/03/25 05:58:04;;;;;;;17.08;6.30;;;7.40;99.90;;;;;;5046575;28;20072;-66
2023/03/25 06:00:31;;;;;;;16.38;6.38;;;7.40;99.90;;;;;;5044215;28;20068;-66
2023/03/25 06:02:58;;;;;;;10.02;3.10;;;7.40;99.90;;;;;;5065670;28;20433;-66
2023/03/25 06:05:24;;;;;;;9.40;2.42;;;7.30;99.90;;;;;;5046281;28;20071;-66
2023/03/25 06:07:54;;;;;;;4.78;2.03;;;7.00;99.90;;;;;;5063820;28;20470;-67
2023/03/25 06:10:21;;;;;;;10.73;2.38;;;6.80;99.90;;;;;;5073605;28;20037;-67
2023/03/25 06:12:47;;;;;;;10.10;2.53;;;6.60;99.90;;;;;;5046038;28;20089;-66
2023/03/25 06:15:32;;;;;;;8.55;2.60;;;6.60;99.90;;;;;;5045395;28;20084;-67
2023/03/25 06:17:59;;;;;;;3.92;2.08;;;6.60;99.90;;;;;;5063282;28;20048;-67
2023/03/25 06:20:25;;;;;;;6.22;2.67;;;6.60;99.90;;;;;;5060550;28;20048;-67
2023/03/25 06:22:51;;;;;;;9.52;2.75;;;6.80;99.90;;;;;;5063682;28;20040;-66
2023/03/25 06:25:27;;;;;;;16.10;3.92;;;6.90;99.90;;;;;;5062580;28;20516;-67
2023/03/25 06:28:02;;;;;;;7.88;3.83;;;7.00;99.90;;;;;;5058718;28;20052;-66
2023/03/25 06:30:33;;;;;;;13.45;4.25;;;7.10;99.90;;;;;;5061686;28;20291;-67
2023/03/25 06:33:01;;;;;;;14.90;4.00;;;7.10;99.90;;;;;;5071896;28;20060;-67
2023/03/25 06:35:27;;;;;;;9.70;3.85;;;7.20;99.90;;;;;;5025375;28;20123;-67
2023/03/25 06:37:56;;;;;;;12.25;4.15;;;7.20;99.90;;;;;;5061590;28;20059;-67
2023/03/25 06:40:23;;;;;;;12.70;3.97;;;7.20;99.90;;;;;;5059390;28;20600;-66
2023/03/25 06:42:50;;;;;;;10.40;3.75;;;7.20;99.90;;;;;;5045293;28;20051;-67
2023/03/25 06:45:15;;;;;;;11.88;3.30;;;7.30;99.90;;;;;;5060504;28;20036;-67
2023/03/25 06:47:41;;;;;;;7.28;3.13;;;7.30;99.90;;;;;;5044420;28;20071;-66
2023/03/25 06:50:07;;;;;;;7.65;2.75;;;7.30;99.90;;;;;;5062532;28;20040;-66
2023/03/25 06:52:33;;;;;;;8.65;2.97;;;7.20;99.90;;;;;;5045706;28;20102;-67
2023/03/25 06:55:01;;;;;;;9.18;2.90;;;7.20;99.90;;;;;;5044935;28;20501;-67
2023/03/25 06:57:31;;;;;;;10.13;2.88;;;7.10;99.90;;;;;;5062786;28;20034;-66
2023/03/25 06:59:59;;;;;;;6.15;2.70;;;7.10;99.90;;;;;;5028444;28;20036;-68
2023/03/25 07:02:25;;;;;;;7.65;3.30;;;7.10;99.90;;;;;;5059201;28;20029;-67
2023/03/25 07:04:52;;;;;;;10.43;3.10;;;7.10;99.90;;;;;;5058920;28;20506;-67
2023/03/25 07:07:18;;;;;;;12.88;3.38;;;7.20;99.90;;;;;;5038347;28;20155;-67
2023/03/25 07:09:46;;;;;;;12.23;3.70;;;7.20;99.90;;;;;;5059570;28;20104;-66
2023/03/25 07:12:12;;;;;;;14.80;3.33;;;7.30;99.90;;;;;;5060117;28;20036;-66
2023/03/25 07:14:38;;;;;;;10.77;3.20;;;7.40;99.90;;;;;;5059458;28;20552;-66
2023/03/25 07:17:03;;;;;;;9.80;3.28;;;7.50;99.90;;;;;;5059008;28;20055;-67
2023/03/25 07:19:30;;;;;;;12.40;3.58;;;7.60;99.90;;;;;;5057369;28;20185;-66
2023/03/25 07:21:55;;;;;;;15.00;4.80;;;7.70;99.90;;;;;;5058146;28;20555;-67
2023/03/25 07:24:21;;;;;;;13.77;3.28;;;7.80;99.90;;;;;;5060280;28;20040;-67
2023/03/25 07:26:47;;;;;;;11.10;4.03;;;7.90;99.90;;;;;;5045162;28;20048;-67
2023/03/25 07:29:12;;;;;;;14.50;3.67;;;7.50;99.90;;;;;;5057690;28;20059;-67
2023/03/25 07:31:39;;;;;;;14.40;3.22;;;8.10;99.90;;;;;;5058799;28;20056;-67
2023/03/25 07:34:07;;;;;;;13.13;3.28;;;8.10;99.90;;;;;;5059726;28;20041;-67
2023/03/25 07:36:33;;;;;;;15.95;4.00;;;8.20;99.90;;;;;;5061249;28;20049;-67
2023/03/25 07:38:58;;;;;;;16.13;4.28;;;8.50;99.90;;;;;;5061089;28;20043;-66
2023/03/25 07:41:24;;;;;;;13.52;4.07;;;8.90;99.90;;;;;;5062620;28;20158;-67
2023/03/25 07:43:50;;;;;;;13.45;3.63;;;9.00;99.90;;;;;;5065036;28;20045;-67
2023/03/25 07:46:16;;;;;;;13.07;4.18;;;9.20;99.90;;;;;;5066326;28;20041;-66
2023/03/25 07:48:42;;;;;;;11.45;3.35;;;9.40;99.90;;;;;;5046969;28;20037;-67
2023/03/25 07:51:08;;;;;;;11.80;3.50;;;9.50;99.90;;;;;;5067599;28;20180;-67
2023/03/25 07:53:37;;;;;;;16.95;4.05;;;9.20;99.90;;;;;;5067543;28;20405;-67
2023/03/25 07:56:04;;;;;;;8.70;3.33;;;8.90;99.90;;;;;;5068834;28;20036;-66
2023/03/25 07:58:30;;;;;;;15.52;3.80;;;8.60;99.90;;;;;;5068290;28;20040;-66
2023/03/25 08:00:56;;;;;;;18.10;3.65;;;8.40;99.90;;;;;;5067704;28;20140;-67
2023/03/25 08:03:22;;;;;;;15.18;4.10;;;8.30;99.90;;;;;;5068229;28;20036;-66
2023/03/25 08:05:48;;;;;;;15.52;4.63;;;8.20;99.90;;;;;;5070019;28;20075;-67
2023/03/25 08:08:14;;;;;;;14.50;3.95;;;8.10;99.90;;;;;;5063020;28;20079;-67
2023/03/25 08:10:46;;;;;;;16.95;4.20;;;8.00;99.90;;;;;;5043670;28;20052;-67
2023/03/25 08:13:12;;;;;;;19.60;4.25;;;8.00;99.90;;;;;;5058543;28;20433;-67
2023/03/25 08:15:39;;;;;;;14.70;4.00;;;8.00;99.90;;;;;;5059509;28;20040;-67
2023/03/25 08:18:05;;;;;;;14.80;3.60;;;8.00;99.90;;;;;;5063023;28;20105;-67
2023/03/25 08:20:32;;;;;;;17.63;4.38;;;7.90;99.90;;;;;;5061615;28;20182;-67
2023/03/25 08:22:58;;;;;;;16.10;3.55;;;7.90;99.90;;;;;;5066400;28;20048;-67
2023/03/25 08:25:25;;;;;;;14.63;2.85;;;7.80;99.90;;;;;;5065873;28;20516;-66
2023/03/25 08:27:51;;;;;;;11.05;3.30;;;7.70;99.90;;;;;;5063049;28;20086;-67
2023/03/25 08:30:16;;;;;;;15.57;3.00;;;7.70;99.90;;;;;;5063520;28;20052;-67
2023/03/25 08:32:44;;;;;;;9.95;2.88;;;7.90;99.90;;;;;;5061639;28;20048;-67
2023/03/25 08:35:11;;;;;;;15.13;4.07;;;8.00;99.90;;;;;;5048114;28;20040;-67
2023/03/25 08:37:37;;;;;;;18.35;3.95;;;8.10;99.90;;;;;;5065089;28;20537;-67
2023/03/25 08:40:10;;;;;;;16.65;3.47;;;8.20;99.90;;;;;;5060294;28;20037;-67
2023/03/25 08:42:37;;;;;;;16.92;3.65;;;8.30;99.90;;;;;;5050695;28;20406;-67
2023/03/25 08:45:09;;;;;;;12.23;3.47;;;8.40;99.90;;;;;;5046726;28;20045;-67
2023/03/25 08:47:35;;;;;;;14.85;4.00;;;8.50;99.90;;;;;;5059010;28;20109;-67
2023/03/25 08:50:01;;;;;;;12.38;4.03;;;8.50;99.90;;;;;;5062587;28;20624;-67
2023/03/25 08:52:27;;;;;;;10.23;3.05;;;8.60;99.90;;;;;;5065880;28;20115;-67
2023/03/25 08:54:52;;;;;;;18.90;3.85;;;8.60;99.90;;;;;;5062699;28;20044;-67
2023/03/25 08:57:18;;;;;;;11.55;3.25;;;8.70;99.90;;;;;;5059784;28;20041;-67
2023/03/25 08:59:44;;;;;;;12.35;3.40;;;8.60;99.90;;;;;;5035889;28;20047;-67
2023/03/25 09:02:11;;;;;;;11.00;3.63;;;8.60;99.90;;;;;;5070358;28;20043;-67
2023/03/25 09:04:38;;;;;;;12.95;3.67;;;8.60;99.90;;;;;;5085258;28;20097;-67
2023/03/25 09:07:06;;;;;;;12.63;4.28;;;8.60;99.90;;;;;;5045840;28;20036;-67
2023/03/25 09:09:32;;;;;;;10.98;3.28;;;8.60;99.90;;;;;;5064673;28;20403;-67
2023/03/25 09:11:58;;;;;;;12.32;2.78;;;8.60;99.90;;;;;;5077076;28;20061;-67
2023/03/25 09:14:24;;;;;;;16.08;4.07;;;8.60;99.90;;;;;;5070264;28;20032;-67
2023/03/25 09:16:50;;;;;;;13.65;3.42;;;8.60;99.90;;;;;;5062278;28;20033;-67
2023/03/25 09:19:15;;;;;;;14.40;3.35;;;8.70;99.90;;;;;;5062995;28;20040;-67
2023/03/25 09:21:42;;;;;;;16.08;4.03;;;8.70;99.90;;;;;;5070557;28;20119;-66
2023/03/25 09:24:08;;;;;;;11.20;3.55;;;8.60;99.90;;;;;;5064942;28;20049;-67
2023/03/25 09:26:35;;;;;;;20.48;3.88;;;8.60;99.90;;;;;;5060465;28;20102;-67
2023/03/25 09:29:01;;;;;;;18.48;3.67;;;8.90;99.90;;;;;;5046347;28;20350;-66
2023/03/25 09:31:27;;;;;;;18.52;5.22;;;9.00;99.90;;;;;;5059234;28;20147;-67
2023/03/25 09:33:53;;;;;;;13.85;4.00;;;9.00;99.90;;;;;;5062278;28;20181;-67
2023/03/25 09:36:18;;;;;;;23.63;3.90;;;8.80;99.90;;;;;;5065016;28;20040;-66
2023/03/25 09:38:49;;;;;;;13.70;3.72;;;8.70;99.90;;;;;;5058002;28;20102;-67
2023/03/25 09:41:27;;;;;;;12.70;3.72;;;8.70;99.90;;;;;;5070457;28;20098;-67
2023/03/25 09:44:19;;;;;;;17.70;4.03;;;9.10;99.90;;;;;;5064823;28;20036;-67
2023/03/25 09:46:49;;;;;;;11.82;4.07;;;9.60;99.90;;;;;;5040259;28;20052;-66
2023/03/25 09:49:26;;;;;;;18.05;3.50;;;9.70;99.90;;;;;;5065674;28;20482;-67
2023/03/25 09:51:55;;;;;;;14.30;3.63;;;9.60;99.90;;;;;;5063190;28;20545;-66
2023/03/25 09:54:31;;;;;;;13.82;3.58;;;9.60;99.90;;;;;;5062385;28;20056;-68
2023/03/25 09:57:05;;;;;;;11.07;3.25;;;9.50;99.90;;;;;;5059659;28;20055;-66
2023/03/25 09:59:45;;;;;;;13.23;3.63;;;9.30;99.90;;;;;;5073483;28;20039;-66
2023/03/25 10:02:26;;;;;;;12.43;3.55;;;9.30;99.90;;;;;;5038595;28;20145;-66
2023/03/25 10:05:13;;;;;;;15.73;3.53;;;9.10;99.90;;;;;;5057487;28;20132;-67
2023/03/25 10:08:06;;;;;;;17.85;2.85;;;9.00;99.90;;;;;;5054806;28;20045;-67
2023/03/25 10:10:47;;;;;;;8.75;2.20;;;8.90;99.90;;;;;;5061273;28;20430;-66
2023/03/25 10:13:38;;;;;;;9.13;2.33;;;8.60;99.90;;;;;;5057338;28;20039;-67
2023/03/25 10:16:37;;;;;;;13.05;3.25;;;8.50;99.90;;;;;;5056958;28;20032;-67
2023/03/25 10:19:16;;;;;;;13.10;3.85;;;8.70;99.90;;;;;;5042538;28;20170;-67
2023/03/25 10:22:10;;;;;;;14.68;3.35;;;9.20;99.90;;;;;;5050329;28;20571;-67
2023/03/25 10:24:55;;;;;;;11.27;3.78;;;9.60;99.90;;;;;;5019055;28;20117;-67
2023/03/25 10:27:41;;;;;;;12.07;3.53;;;9.60;99.90;;;;;;5053322;28;20059;-67
2023/03/25 10:30:29;;;;;;;13.07;3.70;;;9.50;99.90;;;;;;5046390;28;20067;-67
2023/03/25 10:32:57;;;;;;;18.20;3.15;;;9.80;99.90;;;;;;5048409;28;20053;-66
2023/03/25 10:35:36;;;;;;;17.98;3.60;;;9.90;99.90;;;;;;5048234;28;20044;-66
2023/03/25 10:38:17;;;;;;;10.77;2.45;;;9.70;99.90;;;;;;5049056;28;20042;-67
2023/03/25 10:40:49;;;;;;;9.20;2.63;;;9.60;99.90;;;;;;5051402;28;20036;-67
2023/03/25 10:43:20;;;;;;;13.05;3.65;;;9.40;99.90;;;;;;5049074;28;20120;-66
2023/03/25 10:45:48;;;;;;;12.90;2.55;;;9.30;99.90;;;;;;5065316;28;20746;-66
2023/03/25 10:48:24;;;;;;;14.10;2.53;;;9.30;99.90;;;;;;5066440;28;20036;-66
2023/03/25 10:50:58;;;;;;;17.85;3.25;;;9.20;99.90;;;;;;5068323;28;20068;-66
2023/03/25 10:53:26;;;;;;;11.50;3.05;;;9.20;99.90;;;;;;5069173;28;20111;-67
2023/03/25 10:56:03;;;;;;;13.65;3.80;;;9.10;99.90;;;;;;5058368;28;20044;-67
2023/03/25 10:58:30;;;;;;;14.10;3.30;;;9.00;99.90;;;;;;5046755;28;20080;-67
2023/03/25 11:00:57;;;;;;;16.13;3.67;;;9.00;99.90;;;;;;5064499;28;21010;-67
2023/03/25 11:03:31;;;;;;;12.18;3.42;;;9.20;99.90;;;;;;5050720;28;20068;-67
2023/03/25 11:05:57;;;;;;;13.20;3.30;;;9.70;99.90;;;;;;5064797;28;20037;-67
2023/03/25 11:08:24;;;;;;;18.92;4.10;;;9.90;99.90;;;;;;5065157;28;20044;-67
2023/03/25 11:10:55;;;;;;;13.27;3.70;;;9.80;99.90;;;;;;5051843;28;20525;-67
2023/03/25 11:13:29;;;;;;;10.77;3.17;;;9.60;99.90;;;;;;5063181;28;20094;-67
2023/03/25 11:16:00;;;;;;;11.45;2.80;;;9.50;99.90;;;;;;5063996;28;20600;-67
2023/03/25 11:18:27;;;;;;;19.52;3.67;;;9.30;99.90;;;;;;5059351;28;20049;-67
2023/03/25 11:21:02;;;;;;;12.77;3.17;;;9.20;99.90;;;;;;5065886;28;20132;-67
2023/03/25 11:23:35;;;;;;;15.85;2.60;;;9.10;99.90;;;;;;5069118;28;20040;-67
2023/03/25 11:26:11;;;;;;;12.40;2.38;;;9.00;99.90;;;;;;5049430;28;20072;-67
2023/03/25 11:28:43;;;;;;;10.52;2.72;;;9.00;99.90;;;;;;5061821;28;20037;-66
2023/03/25 11:31:15;;;;;;;14.30;3.93;;;9.20;99.90;;;;;;5060359;28;20052;-67
2023/03/25 11:33:44;;;;;;;16.85;3.03;;;9.60;99.90;;;;;;5060748;28;20317;-67
2023/03/25 11:36:31;;;;;;;16.40;3.42;;;10.00;99.90;;;;;;5052818;28;20036;-68
2023/03/25 11:39:10;;;;;;;16.02;2.63;;;10.20;99.90;;;;;;5066403;28;20049;-67
2023/03/25 11:41:36;;;;;;;18.27;3.42;;;10.30;99.90;;;;;;5066536;28;20524;-67
2023/03/25 11:44:04;;;;;;;7.55;2.28;;;10.60;99.90;;;;;;5066235;28;20120;-68
2023/03/25 11:46:32;;;;;;;15.23;3.17;;;10.80;99.90;;;;;;5067578;28;20071;-67
2023/03/25 11:49:11;;;;;;;10.70;2.70;;;10.70;99.90;;;;;;5065311;28;20041;-67
2023/03/25 11:51:36;;;;;;;17.30;3.05;;;10.50;99.90;;;;;;5063300;28;20033;-67
2023/03/25 11:54:11;;;;;;;17.73;3.90;;;10.40;99.90;;;;;;5063294;28;20614;-67
2023/03/25 11:56:43;;;;;;;11.75;2.92;;;10.30;99.90;;;;;;5053518;28;20047;-67
2023/03/25 11:59:22;;;;;;;10.65;2.83;;;10.30;99.90;;;;;;5061124;28;20063;-67
2023/03/25 12:01:50;;;;;;;19.77;2.88;;;10.40;99.90;;;;;;5068062;28;20421;-67
2023/03/25 12:04:23;;;;;;;8.82;2.28;;;10.40;99.90;;;;;;5067839;28;20040;-67
2023/03/25 12:07:13;;;;;;;10.27;2.65;;;10.40;99.90;;;;;;5070025;28;20033;-67
2023/03/25 12:09:54;;;;;;;16.25;3.20;;;10.30;99.90;;;;;;5052338;28;20044;-67
2023/03/25 12:12:43;;;;;;;11.32;3.17;;;10.40;99.90;;;;;;5045844;28;20025;-68
2023/03/25 12:15:31;;;;;;;10.27;2.17;;;10.30;99.90;;;;;;5070863;28;20498;-67
2023/03/25 12:18:28;;;;;;;15.38;2.75;;;10.20;99.90;;;;;;5069474;28;20105;-67
2023/03/25 12:21:16;;;;;;;11.90;3.15;;;10.10;99.90;;;;;;5049397;28;20147;-67
2023/03/25 12:23:51;;;;;;;9.85;2.75;;;10.10;99.90;;;;;;5059564;28;20102;-67
2023/03/25 12:26:30;;;;;;;11.80;2.42;;;10.30;99.90;;;;;;5073178;28;20037;-67
2023/03/25 12:29:23;;;;;;;9.75;2.85;;;10.50;99.90;;;;;;5058858;28;20047;-67
2023/03/25 12:31:57;;;;;;;;;;;10.70;99.90;;;;;;5070670;28;20509;-67
2023/03/25 12:34:38;;;;;;;8.18;1.98;;;10.60;99.90;;;;;;5062759;28;20358;-67
2023/03/25 12:37:22;;;;;;;10.68;2.95;;;10.50;99.90;;;;;;5036617;28;20044;-67
2023/03/25 12:40:18;;;;;;;16.17;3.20;;;10.60;99.90;;;;;;5071283;28;20036;-67
2023/03/25 12:42:54;;;;;;;11.60;2.60;;;10.90;99.90;;;;;;5086914;28;20090;-67
2023/03/25 12:45:30;;;;;;;8.68;2.42;;;11.00;99.90;;;;;;5070272;28;20056;-67
2023/03/25 12:48:08;;;;;;;11.48;2.40;;;11.10;99.90;;;;;;5068698;28;20082;-67
2023/03/25 12:50:52;;;;;;;12.70;2.38;;;11.00;99.90;;;;;;5066008;28;20498;-67
2023/03/25 12:53:45;;;;;;;10.40;2.70;;;10.80;99.90;;;;;;5072217;28;20111;-67
2023/03/25 12:56:44;;;;;;;16.98;2.60;;;10.70;99.90;;;;;;5067578;28;20044;-67
2023/03/25 12:59:13;;;;;;;9.80;2.67;;;10.50;99.90;;;;;;5062604;28;20520;-67
2023/03/25 13:01:41;;;;;;;13.95;2.90;;;10.50;99.90;;;;;;5071987;28;20067;-68
2023/03/25 13:04:47;;;;;;;12.52;2.88;;;10.40;99.90;;;;;;5063308;28;20037;-67
2023/03/25 13:07:35;;;;;;;8.05;2.60;;;10.40;99.90;;;;;;5058613;28;20119;-67
2023/03/25 13:10:10;;;;;;;10.82;2.30;;;10.40;99.90;;;;;;5068790;28;20036;-67
2023/03/25 13:12:45;;;;;;;11.05;2.10;;;10.70;99.90;;;;;;5066543;28;20047;-67
2023/03/25 13:15:49;;;;;;;8.45;3.00;;;11.20;99.90;;;;;;5069812;28;20129;-67